Time;durP1;ratioP1;P1;durP2;ratioP2;P2;SDS_P1;SDS_P2;PMS_P1;PMS_P2;Temp;Humidity;BMP_temperature;BMP_pressure;BME280_temperature;BME280_humidity;BME280_pressure;Samples;Min_cycle;Max_cycle;Signal;HPM_P1;HPM_P2
2023/09/05 00:02:30;;;;;;;6.95;3.80;;;;;;;;;;5006912;28;20036;-73
2023/09/05 00:05:18;;;;;;;6.05;4.13;;;;;;;;;;5028910;28;20022;-73
2023/09/05 00:08:03;;;;;;;7.30;4.00;;;;;;;;;;5006281;28;20037;-74
2023/09/05 00:10:48;;;;;;;6.60;4.35;;;;;;;;;;4989230;28;20136;-72
2023/09/05 00:13:33;;;;;;;6.43;4.13;;;;;;;;;;5004199;28;20038;-66
2023/09/05 00:16:19;;;;;;;5.70;4.13;;;;;;;;;;5002867;28;20034;-67
2023/09/05 00:19:05;;;;;;;6.47;3.63;;;;;;;;;;5016319;28;20129;-65
2023/09/05 00:21:52;;;;;;;6.15;3.67;;;;;;;;;;4990724;28;20037;-67
2023/09/05 00:24:38;;;;;;;9.00;4.97;;;;;;;;;;5019925;28;20033;-67
2023/09/05 00:27:25;;;;;;;7.53;4.75;;;;;;;;;;5017340;28;20528;-67
2023/09/05 00:30:34;;;;;;;7.53;3.92;;;;;;;;;;5007909;28;20029;-67
2023/09/05 00:33:19;;;;;;;7.43;4.50;;;;;;;;;;5017625;28;20027;-75
2023/09/05 00:36:05;;;;;;;7.03;4.40;;;;;;;;;;5018688;28;20065;-67
2023/09/05 00:38:53;;;;;;;4.00;3.05;;;;;;;;;;4999367;28;20065;-66
2023/09/05 00:42:03;;;;;;;5.30;3.85;;;;;;;;;;5024858;28;20064;-67
2023/09/05 00:44:49;;;;;;;6.03;3.53;;;;;;;;;;5003818;28;20026;-67
2023/09/05 00:48:02;;;;;;;6.32;3.58;;;;;;;;;;5020497;28;20113;-67
2023/09/05 00:50:56;;;;;;;5.65;3.80;;;;;;;;;;5004155;28;20038;-74
2023/09/05 00:53:41;;;;;;;5.53;3.42;;;;;;;;;;5010083;28;20034;-66
2023/09/05 00:56:27;;;;;;;5.05;3.10;;;;;;;;;;5008120;28;20049;-63
2023/09/05 00:59:12;;;;;;;4.78;3.67;;;;;;;;;;5010089;28;20099;-65
2023/09/05 01:01:57;;;;;;;5.95;4.05;;;;;;;;;;5021470;28;20032;-62
2023/09/05 01:04:43;;;;;;;4.65;2.97;;;;;;;;;;5002925;28;20037;-63
2023/09/05 01:07:32;;;;;;;5.85;3.33;;;;;;;;;;5008137;28;20124;-62
2023/09/05 01:10:17;;;;;;;;;;;;;;;;;;5008943;28;20508;-64
2023/09/05 01:13:05;;;;;;;6.75;3.10;;;;;;;;;;5008949;28;20226;-67
2023/09/05 01:15:57;;;;;;;5.50;3.13;;;;;;;;;;5010988;28;20037;-67
2023/09/05 01:18:47;;;;;;;4.53;2.97;;;;;;;;;;5023975;28;20042;-67
2023/09/05 01:26:46;;;;;;;4.75;2.97;;;;;;;;;;4917757;23;20058;-74
2023/09/05 01:29:35;;;;;;;6.15;3.53;;;;;;;;;;4980965;28;20045;-74
2023/09/05 01:32:20;;;;;;;4.60;3.38;;;;;;;;;;4992850;28;20140;-75
2023/09/05 01:35:06;;;;;;;4.90;3.08;;;;;;;;;;4994792;28;20026;-72
2023/09/05 01:37:51;;;;;;;5.32;3.50;;;;;;;;;;5009775;28;20038;-73
2023/09/05 01:40:37;;;;;;;5.20;3.20;;;;;;;;;;5000640;28;20508;-74
2023/09/05 01:43:22;;;;;;;5.53;3.38;;;;;;;;;;5002591;28;20096;-78
2023/09/05 01:46:07;;;;;;;6.72;3.40;;;;;;;;;;4991068;28;20037;-63
2023/09/05 01:48:52;;;;;;;8.20;3.75;;;;;;;;;;4994619;28;20033;-65
2023/09/05 01:51:38;;;;;;;4.95;3.45;;;;;;;;;;5010231;28;20092;-68
2023/09/05 01:54:24;;;;;;;6.60;3.03;;;;;;;;;;4994513;28;20038;-65
2023/09/05 01:57:09;;;;;;;5.28;3.47;;;;;;;;;;4995919;28;20038;-66
2023/09/05 01:59:54;;;;;;;5.03;3.17;;;;;;;;;;5004900;28;20563;-67
2023/09/05 02:03:00;;;;;;;5.20;3.22;;;;;;;;;;4994675;28;20030;-69
2023/09/05 02:05:48;;;;;;;6.07;3.45;;;;;;;;;;4992390;28;20038;-68
2023/09/05 02:09:06;;;;;;;4.68;2.78;;;;;;;;;;4991185;28;21110;-69
2023/09/05 02:12:12;;;;;;;3.58;2.65;;;;;;;;;;4981578;28;20080;-66
2023/09/05 02:15:26;;;;;;;5.68;3.10;;;;;;;;;;4993625;28;20560;-67
2023/09/05 02:18:11;;;;;;;6.75;2.60;;;;;;;;;;4987635;28;20037;-75
2023/09/05 02:21:01;;;;;;;6.13;3.13;;;;;;;;;;4994509;28;20480;-69
2023/09/05 02:23:50;;;;;;;4.82;2.75;;;;;;;;;;4994122;28;20033;-67
2023/09/05 02:26:39;;;;;;;6.43;3.33;;;;;;;;;;4952878;28;20030;-67
2023/09/05 02:29:26;;;;;;;5.22;2.85;;;;;;;;;;4993393;28;20588;-68
2023/09/05 02:32:30;;;;;;;4.50;2.75;;;;;;;;;;4985821;28;20376;-68
2023/09/05 02:35:16;;;;;;;4.47;2.83;;;;;;;;;;4980184;28;20053;-68
2023/09/05 02:38:02;;;;;;;8.00;3.03;;;;;;;;;;4989161;28;20057;-66
2023/09/05 02:41:07;;;;;;;4.97;3.03;;;;;;;;;;4977775;28;20389;-69
2023/09/05 02:43:53;;;;;;;4.85;2.58;;;;;;;;;;4993438;28;20548;-67
2023/09/05 02:47:11;;;;;;;5.15;2.95;;;;;;;;;;4997185;28;20091;-67
2023/09/05 02:50:07;;;;;;;6.22;3.15;;;;;;;;;;4963358;28;20042;-68
2023/09/05 02:52:54;;;;;;;3.40;2.40;;;;;;;;;;4990332;28;20116;-68
2023/09/05 02:56:00;;;;;;;6.43;2.75;;;;;;;;;;4994459;28;20116;-66
2023/09/05 02:58:47;;;;;;;5.47;2.90;;;;;;;;;;4990150;28;20340;-64
2023/09/05 03:01:32;;;;;;;5.57;2.55;;;;;;;;;;4991814;28;20116;-66
2023/09/05 03:04:18;;;;;;;5.60;2.70;;;;;;;;;;4993608;28;20518;-65
2023/09/05 03:07:03;;;;;;;5.30;3.00;;;;;;;;;;4990863;28;20022;-69
2023/09/05 03:09:51;;;;;;;4.00;2.65;;;;;;;;;;4990675;28;20034;-65
2023/09/05 03:12:37;;;;;;;6.80;2.97;;;;;;;;;;4993503;28;20032;-67
2023/09/05 03:15:23;;;;;;;3.63;2.35;;;;;;;;;;4978074;28;20357;-74
2023/09/05 03:18:08;;;;;;;7.03;3.08;;;;;;;;;;4992342;28;20038;-72
2023/09/05 03:20:53;;;;;;;5.38;3.30;;;;;;;;;;4991870;28;20040;-72
2023/09/05 03:23:39;;;;;;;6.07;3.38;;;;;;;;;;4975432;28;20157;-72
2023/09/05 03:26:24;;;;;;;5.30;2.78;;;;;;;;;;4992809;28;20033;-73
2023/09/05 03:29:09;;;;;;;4.53;2.35;;;;;;;;;;4989124;28;20056;-73
2023/09/05 03:31:54;;;;;;;8.45;3.40;;;;;;;;;;4991251;28;20068;-72
2023/09/05 03:34:48;;;;;;;6.10;2.95;;;;;;;;;;4990812;28;20045;-81
2023/09/05 03:37:34;;;;;;;6.28;2.90;;;;;;;;;;4992680;28;20042;-81
2023/09/05 03:40:19;;;;;;;5.28;2.95;;;;;;;;;;4976520;28;20061;-84
2023/09/05 03:43:04;;;;;;;7.32;3.28;;;;;;;;;;4994462;28;20376;-80
2023/09/05 03:45:49;;;;;;;5.18;3.20;;;;;;;;;;4993069;28;20042;-80
2023/09/05 03:48:34;;;;;;;4.00;2.55;;;;;;;;;;4988774;28;20034;-80
2023/09/05 03:51:20;;;;;;;8.95;3.03;;;;;;;;;;4989336;28;20058;-75
2023/09/05 03:54:05;;;;;;;5.25;3.08;;;;;;;;;;4993265;28;20034;-67
2023/09/05 03:56:50;;;;;;;5.70;2.80;;;;;;;;;;4989185;28;20046;-68
2023/09/05 03:59:35;;;;;;;6.13;2.53;;;;;;;;;;4988445;28;20099;-66
2023/09/05 04:02:21;;;;;;;7.60;3.30;;;;;;;;;;4989578;28;21464;-68
2023/09/05 04:05:07;;;;;;;4.32;2.90;;;;;;;;;;4990601;28;20019;-67
2023/09/05 04:07:53;;;;;;;5.28;3.10;;;;;;;;;;4992175;28;20034;-69
2023/09/05 04:10:38;;;;;;;4.88;3.10;;;;;;;;;;4991928;28;20505;-73
2023/09/05 04:13:23;;;;;;;4.43;2.90;;;;;;;;;;4986931;28;20416;-72
2023/09/05 04:16:08;;;;;;;5.45;2.75;;;;;;;;;;4989489;28;20397;-72
2023/09/05 04:18:53;;;;;;;3.95;2.45;;;;;;;;;;4999676;28;20022;-72
2023/09/05 04:21:39;;;;;;;5.72;3.00;;;;;;;;;;4988497;28;20030;-72
2023/09/05 04:24:24;;;;;;;5.15;2.63;;;;;;;;;;5003337;28;20030;-71
2023/09/05 04:27:09;;;;;;;9.80;3.60;;;;;;;;;;4990838;28;20448;-67
2023/09/05 04:29:54;;;;;;;12.27;3.13;;;;;;;;;;4989804;28;20041;-64
2023/09/05 04:32:42;;;;;;;5.07;3.42;;;;;;;;;;4986545;28;20081;-64
2023/09/05 04:35:28;;;;;;;4.68;2.83;;;;;;;;;;4985687;28;20052;-65
2023/09/05 04:38:13;;;;;;;4.25;2.85;;;;;;;;;;4983052;28;20030;-65
2023/09/05 04:41:02;;;;;;;5.65;3.53;;;;;;;;;;5004914;28;20041;-65
2023/09/05 04:43:47;;;;;;;5.45;3.58;;;;;;;;;;4987957;28;20092;-64
2023/09/05 04:46:38;;;;;;;7.72;3.38;;;;;;;;;;4990316;28;20045;-72
2023/09/05 04:49:23;;;;;;;4.28;2.88;;;;;;;;;;4989836;28;20044;-66
2023/09/05 04:52:11;;;;;;;8.15;3.30;;;;;;;;;;4989283;28;20038;-63
2023/09/05 04:54:58;;;;;;;6.30;3.43;;;;;;;;;;4993986;28;20064;-63
2023/09/05 04:57:43;;;;;;;5.65;3.50;;;;;;;;;;5002797;28;20061;-63
2023/09/05 05:00:31;;;;;;;6.75;3.22;;;;;;;;;;4990155;28;20026;-64
2023/09/05 05:03:16;;;;;;;7.30;3.65;;;;;;;;;;5006116;28;20025;-78
2023/09/05 05:06:02;;;;;;;4.47;3.20;;;;;;;;;;4989158;28;20188;-72
2023/09/05 05:08:48;;;;;;;6.45;3.03;;;;;;;;;;4989149;28;20100;-67
2023/09/05 05:11:33;;;;;;;10.57;4.45;;;;;;;;;;4986236;28;20113;-66
2023/09/05 05:14:18;;;;;;;6.13;3.33;;;;;;;;;;4985360;28;20045;-63
2023/09/05 05:17:04;;;;;;;5.63;3.30;;;;;;;;;;4992867;28;20034;-65
2023/09/05 05:19:49;;;;;;;5.95;3.50;;;;;;;;;;4997302;28;20638;-64
2023/09/05 05:22:34;;;;;;;7.43;3.72;;;;;;;;;;4990077;28;20073;-63
2023/09/05 05:25:19;;;;;;;8.50;4.30;;;;;;;;;;4984829;28;20034;-72
2023/09/05 05:28:05;;;;;;;6.38;3.70;;;;;;;;;;4988404;28;20172;-75
2023/09/05 05:30:50;;;;;;;7.35;3.40;;;;;;;;;;4989210;28;20083;-74
2023/09/05 05:33:35;;;;;;;7.07;2.88;;;;;;;;;;4969353;28;20030;-71
2023/09/05 05:36:21;;;;;;;7.63;3.47;;;;;;;;;;4983376;28;20126;-72
2023/09/05 05:39:06;;;;;;;8.98;3.88;;;;;;;;;;4989447;28;20058;-73
2023/09/05 05:41:51;;;;;;;6.78;3.55;;;;;;;;;;5000831;28;20029;-73
2023/09/05 05:44:37;;;;;;;5.65;2.88;;;;;;;;;;4992761;28;20366;-74
2023/09/05 05:47:24;;;;;;;4.72;3.13;;;;;;;;;;5005341;28;20060;-73
2023/09/05 05:50:09;;;;;;;6.28;3.75;;;;;;;;;;4977843;28;20533;-74
2023/09/05 05:52:54;;;;;;;9.45;3.70;;;;;;;;;;4997038;28;20362;-73
2023/09/05 05:55:40;;;;;;;6.30;3.00;;;;;;;;;;4998381;28;20038;-74
2023/09/05 05:58:25;;;;;;;5.38;3.05;;;;;;;;;;4996984;28;20025;-68
2023/09/05 06:01:11;;;;;;;10.40;4.13;;;;;;;;;;4990313;28;20038;-73
2023/09/05 06:03:56;;;;;;;5.70;2.95;;;;;;;;;;4982528;28;20044;-67
2023/09/05 06:06:48;;;;;;;8.38;4.10;;;;;;;;;;4993282;28;20336;-75
2023/09/05 06:09:34;;;;;;;9.45;3.78;;;;;;;;;;4984038;28;20037;-75
2023/09/05 06:12:19;;;;;;;6.78;3.58;;;;;;;;;;5000407;28;20424;-74
2023/09/05 06:15:04;;;;;;;6.38;3.70;;;;;;;;;;4995004;28;20040;-73
2023/09/05 06:17:49;;;;;;;8.90;3.25;;;;;;;;;;4994347;28;20511;-71
2023/09/05 06:20:36;;;;;;;7.13;2.95;;;;;;;;;;4995217;28;20038;-76
2023/09/05 06:23:21;;;;;;;5.55;3.30;;;;;;;;;;4992387;28;20042;-76
2023/09/05 06:26:06;;;;;;;6.65;3.15;;;;;;;;;;5004770;28;20049;-73
2023/09/05 06:28:52;;;;;;;10.90;3.42;;;;;;;;;;4985983;28;20495;-75
2023/09/05 06:31:37;;;;;;;8.52;3.20;;;;;;;;;;4996354;28;20034;-72
2023/09/05 06:34:22;;;;;;;5.60;3.10;;;;;;;;;;4994095;28;20038;-70
2023/09/05 06:37:08;;;;;;;6.45;3.00;;;;;;;;;;4992113;28;20393;-75
2023/09/05 06:39:53;;;;;;;7.63;3.53;;;;;;;;;;4998788;28;20037;-74
2023/09/05 06:42:42;;;;;;;3.65;2.40;;;;;;;;;;5008952;28;20149;-75
2023/09/05 06:45:27;;;;;;;7.60;3.65;;;;;;;;;;4982185;28;20091;-74
2023/09/05 06:48:12;;;;;;;4.82;3.00;;;;;;;;;;4988222;28;20042;-74
2023/09/05 06:50:58;;;;;;;4.18;2.67;;;;;;;;;;4991182;28;20038;-76
2023/09/05 06:53:43;;;;;;;5.47;2.75;;;;;;;;;;4994120;28;20485;-74
2023/09/05 06:56:29;;;;;;;4.43;2.30;;;;;;;;;;4981054;28;20045;-74
2023/09/05 06:59:17;;;;;;;10.68;2.90;;;;;;;;;;4981873;28;20038;-75
2023/09/05 07:02:02;;;;;;;5.93;2.72;;;;;;;;;;4971947;28;20029;-76
2023/09/05 07:04:48;;;;;;;5.72;3.25;;;;;;;;;;4994635;28;20404;-76
2023/09/05 07:07:33;;;;;;;6.07;2.90;;;;;;;;;;4992112;28;20030;-80
2023/09/05 07:10:18;;;;;;;5.55;2.50;;;;;;;;;;4993518;28;20105;-76
2023/09/05 07:13:03;;;;;;;6.32;2.78;;;;;;;;;;4984642;28;20053;-74
2023/09/05 07:15:49;;;;;;;4.70;2.60;;;;;;;;;;4990498;28;20500;-81
2023/09/05 07:18:34;;;;;;;6.15;2.78;;;;;;;;;;4981227;28;20069;-86
2023/09/05 07:21:19;;;;;;;5.75;2.85;;;;;;;;;;4972848;28;20030;-83
2023/09/05 07:24:04;;;;;;;5.32;3.28;;;;;;;;;;4997209;28;20529;-80
2023/09/05 07:26:49;;;;;;;16.58;3.70;;;;;;;;;;4982365;28;20034;-78
2023/09/05 07:29:35;;;;;;;4.30;2.42;;;;;;;;;;4995553;28;20046;-80
2023/09/05 07:32:20;;;;;;;6.63;2.95;;;;;;;;;;4976884;28;20472;-74
2023/09/05 07:35:05;;;;;;;3.28;2.20;;;;;;;;;;4991660;28;20038;-74
2023/09/05 07:37:51;;;;;;;3.90;2.40;;;;;;;;;;4987174;28;20101;-76
2023/09/05 07:40:36;;;;;;;4.65;2.28;;;;;;;;;;4991832;28;20102;-72
2023/09/05 07:43:21;;;;;;;4.72;2.40;;;;;;;;;;4995274;28;20033;-72
2023/09/05 07:46:06;;;;;;;4.00;2.22;;;;;;;;;;4985300;28;20065;-72
2023/09/05 07:48:52;;;;;;;5.47;2.42;;;;;;;;;;4992065;28;20049;-78
2023/09/05 07:51:37;;;;;;;4.65;2.67;;;;;;;;;;4996698;28;20048;-75
2023/09/05 07:54:25;;;;;;;3.53;2.38;;;;;;;;;;4988677;28;20119;-74
2023/09/05 07:57:11;;;;;;;6.10;3.27;;;;;;;;;;4993727;28;20049;-75
2023/09/05 07:59:56;;;;;;;6.30;2.88;;;;;;;;;;5009322;28;20256;-75
2023/09/05 08:02:41;;;;;;;7.38;3.00;;;;;;;;;;4994374;28;20472;-74
2023/09/05 08:05:26;;;;;;;5.50;2.58;;;;;;;;;;4972795;28;20528;-74
2023/09/05 08:08:13;;;;;;;3.45;2.13;;;;;;;;;;4996093;28;20040;-74
2023/09/05 08:10:58;;;;;;;5.93;2.53;;;;;;;;;;4980412;28;20026;-76
2023/09/05 08:13:43;;;;;;;3.67;1.80;;;;;;;;;;5011025;28;20034;-77
2023/09/05 08:16:29;;;;;;;3.25;1.98;;;;;;;;;;4994566;28;20037;-79
2023/09/05 08:19:17;;;;;;;7.60;2.38;;;;;;;;;;4991702;28;20039;-80
2023/09/05 08:22:02;;;;;;;4.38;2.22;;;;;;;;;;4986280;28;20095;-77
2023/09/05 08:24:47;;;;;;;4.25;2.75;;;;;;;;;;4992639;28;20388;-79
2023/09/05 08:27:33;;;;;;;3.15;2.15;;;;;;;;;;4979489;28;20045;-67
2023/09/05 08:30:18;;;;;;;6.03;2.47;;;;;;;;;;4987433;28;20064;-70
2023/09/05 08:33:04;;;;;;;3.47;2.50;;;;;;;;;;5008647;28;20041;-69
2023/09/05 08:35:49;;;;;;;4.95;2.30;;;;;;;;;;5002572;28;20108;-70
2023/09/05 08:38:37;;;;;;;4.88;2.53;;;;;;;;;;4993631;28;20515;-69
2023/09/05 08:41:22;;;;;;;5.43;2.08;;;;;;;;;;4995692;28;20076;-71
2023/09/05 08:44:08;;;;;;;3.88;2.45;;;;;;;;;;4991934;28;20029;-73
2023/09/05 08:46:54;;;;;;;2.35;1.70;;;;;;;;;;5000772;28;20438;-67
2023/09/05 08:49:39;;;;;;;2.67;1.73;;;;;;;;;;4991434;28;20494;-65
2023/09/05 08:52:28;;;;;;;3.10;2.00;;;;;;;;;;4991686;28;20066;-63
2023/09/05 08:55:13;;;;;;;3.63;2.25;;;;;;;;;;4988240;28;20042;-65
2023/09/05 08:58:00;;;;;;;2.97;2.00;;;;;;;;;;5018503;28;20045;-67
2023/09/05 09:00:45;;;;;;;3.20;2.22;;;;;;;;;;4987908;28;20040;-66
2023/09/05 09:03:31;;;;;;;4.15;2.25;;;;;;;;;;5005591;28;20050;-74
2023/09/05 09:06:20;;;;;;;2.83;2.13;;;;;;;;;;4985949;28;20037;-70
2023/09/05 09:09:05;;;;;;;5.60;2.20;;;;;;;;;;4992682;28;20038;-70
2023/09/05 09:12:00;;;;;;;3.90;2.22;;;;;;;;;;4999361;28;20627;-69
2023/09/05 09:14:45;;;;;;;2.83;2.15;;;;;;;;;;4994037;28;20038;-74
2023/09/05 09:17:30;;;;;;;5.68;2.70;;;;;;;;;;4999757;28;20499;-71
2023/09/05 09:20:16;;;;;;;4.95;1.60;;;;;;;;;;4996690;28;20045;-72
2023/09/05 09:23:01;;;;;;;3.90;2.42;;;;;;;;;;4990604;28;20130;-64
2023/09/05 09:25:47;;;;;;;4.18;1.83;;;;;;;;;;5001036;28;20526;-69
2023/09/05 09:28:34;;;;;;;3.45;1.80;;;;;;;;;;4996048;28;20037;-70
2023/09/05 09:31:23;;;;;;;2.95;1.75;;;;;;;;;;4995839;28;20052;-68
2023/09/05 09:34:10;;;;;;;3.15;2.05;;;;;;;;;;4993814;28;20224;-68
2023/09/05 09:36:55;;;;;;;5.03;1.90;;;;;;;;;;4977732;28;20083;-69
2023/09/05 09:39:40;;;;;;;4.10;2.55;;;;;;;;;;4997146;28;20029;-73
2023/09/05 09:42:26;;;;;;;3.13;2.10;;;;;;;;;;4986029;28;20026;-67
2023/09/05 09:45:11;;;;;;;2.03;1.67;;;;;;;;;;4997725;28;20030;-69
2023/09/05 09:47:57;;;;;;;3.05;1.98;;;;;;;;;;5013211;28;20372;-64
2023/09/05 09:50:43;;;;;;;3.00;1.88;;;;;;;;;;4996582;28;20044;-66
2023/09/05 09:53:30;;;;;;;8.13;2.75;;;;;;;;;;4997526;28;20135;-67
2023/09/05 09:56:19;;;;;;;11.45;2.65;;;;;;;;;;4996194;28;20026;-67
2023/09/05 09:59:04;;;;;;;4.20;2.33;;;;;;;;;;4996387;28;20053;-69
2023/09/05 10:01:51;;;;;;;3.53;2.42;;;;;;;;;;4994668;28;20045;-63
2023/09/05 10:04:36;;;;;;;4.68;2.13;;;;;;;;;;4970724;28;20079;-65
2023/09/05 10:07:22;;;;;;;5.97;2.60;;;;;;;;;;4996483;28;20105;-64
2023/09/05 10:10:09;;;;;;;3.30;1.90;;;;;;;;;;4998404;28;20030;-63
2023/09/05 10:12:56;;;;;;;2.72;1.80;;;;;;;;;;5010937;28;20415;-69
2023/09/05 10:15:42;;;;;;;3.58;1.60;;;;;;;;;;5012679;28;20045;-67
2023/09/05 10:18:31;;;;;;;5.05;2.67;;;;;;;;;;4996659;28;20061;-67
2023/09/05 10:21:19;;;;;;;4.85;2.20;;;;;;;;;;4995970;28;20506;-65
2023/09/05 10:24:05;;;;;;;4.63;2.33;;;;;;;;;;4996480;28;20056;-63
2023/09/05 10:26:50;;;;;;;2.47;1.65;;;;;;;;;;4994124;28;20496;-63
2023/09/05 10:29:43;;;;;;;4.75;1.95;;;;;;;;;;4983316;28;20540;-64
2023/09/05 10:32:29;;;;;;;4.90;2.20;;;;;;;;;;4990576;28;20048;-64
2023/09/05 10:35:18;;;;;;;2.85;1.80;;;;;;;;;;4998309;28;20033;-71
2023/09/05 10:38:07;;;;;;;5.70;2.17;;;;;;;;;;4997169;28;20036;-66
2023/09/05 10:40:52;;;;;;;4.43;2.00;;;;;;;;;;4991589;28;20052;-62
2023/09/05 10:43:52;;;;;;;6.18;2.72;;;;;;;;;;5003601;28;20029;-61
2023/09/05 10:46:38;;;;;;;7.10;2.83;;;;;;;;;;5001266;28;20033;-63
2023/09/05 10:49:24;;;;;;;3.63;2.22;;;;;;;;;;4997159;28;20081;-66
2023/09/05 10:52:18;;;;;;;4.93;2.03;;;;;;;;;;4995156;28;20068;-65
2023/09/05 10:55:22;;;;;;;4.40;2.20;;;;;;;;;;5005539;28;20040;-68
2023/09/05 10:58:31;;;;;;;2.75;1.75;;;;;;;;;;4991121;28;20034;-67
2023/09/05 11:01:29;;;;;;;3.53;1.88;;;;;;;;;;4996603;28;20101;-65
2023/09/05 11:04:18;;;;;;;2.60;1.83;;;;;;;;;;5000516;28;20492;-69
2023/09/05 11:07:05;;;;;;;2.35;1.70;;;;;;;;;;5004599;28;20080;-67
2023/09/05 11:09:51;;;;;;;4.80;1.80;;;;;;;;;;4996526;28;20477;-67
2023/09/05 11:12:37;;;;;;;7.70;2.15;;;;;;;;;;4976811;28;20060;-63
2023/09/05 11:15:32;;;;;;;5.70;1.90;;;;;;;;;;5002969;28;20034;-65
2023/09/05 11:18:19;;;;;;;5.47;1.77;;;;;;;;;;4993407;28;20033;-65
2023/09/05 11:21:06;;;;;;;4.03;1.83;;;;;;;;;;5002258;28;20029;-68
2023/09/05 11:23:52;;;;;;;2.28;1.65;;;;;;;;;;5001077;28;20038;-70
2023/09/05 11:26:37;;;;;;;1.70;1.42;;;;;;;;;;4998054;28;20120;-66
2023/09/05 11:29:27;;;;;;;4.05;1.73;;;;;;;;;;4996194;28;20376;-68
2023/09/05 11:32:14;;;;;;;3.05;1.50;;;;;;;;;;4983323;28;20493;-67
2023/09/05 11:35:01;;;;;;;5.75;1.55;;;;;;;;;;4997504;28;20033;-73
2023/09/05 11:37:56;;;;;;;3.92;1.90;;;;;;;;;;5002841;28;20033;-71
2023/09/05 11:40:54;;;;;;;4.32;1.55;;;;;;;;;;4998626;28;20113;-69
2023/09/05 11:43:50;;;;;;;2.30;1.50;;;;;;;;;;4995348;28;20037;-63
2023/09/05 11:46:40;;;;;;;2.13;1.33;;;;;;;;;;5009775;28;20085;-60
2023/09/05 11:49:25;;;;;;;5.55;2.47;;;;;;;;;;5001657;28;20038;-68
2023/09/05 11:52:11;;;;;;;2.70;1.30;;;;;;;;;;4993505;28;20066;-72
2023/09/05 11:54:57;;;;;;;1.88;1.40;;;;;;;;;;4993486;28;20037;-71
2023/09/05 11:57:42;;;;;;;4.53;1.83;;;;;;;;;;4990848;28;20528;-75
2023/09/05 12:00:27;;;;;;;3.90;1.80;;;;;;;;;;4999552;28;20029;-74
2023/09/05 12:03:14;;;;;;;3.60;1.52;;;;;;;;;;4997555;28;20038;-71
2023/09/05 12:06:01;;;;;;;3.00;2.00;;;;;;;;;;4993205;28;20092;-73
2023/09/05 12:08:46;;;;;;;2.97;1.35;;;;;;;;;;4999502;28;20037;-71
2023/09/05 12:11:32;;;;;;;3.08;1.70;;;;;;;;;;4988674;28;20034;-68
2023/09/05 12:14:17;;;;;;;2.25;1.42;;;;;;;;;;4992514;28;20037;-67
2023/09/05 12:17:02;;;;;;;2.80;1.60;;;;;;;;;;4992466;28;20470;-69
2023/09/05 12:19:48;;;;;;;3.00;1.52;;;;;;;;;;4994930;28;20041;-67
2023/09/05 12:22:33;;;;;;;2.78;1.40;;;;;;;;;;4990510;28;20133;-68
2023/09/05 12:25:21;;;;;;;2.08;1.60;;;;;;;;;;4992725;28;20720;-64
2023/09/05 12:28:20;;;;;;;2.75;1.45;;;;;;;;;;4997448;28;20120;-67
2023/09/05 12:31:06;;;;;;;5.22;2.30;;;;;;;;;;5008015;28;20084;-68
2023/09/05 12:33:55;;;;;;;3.85;1.50;;;;;;;;;;4995697;28;20053;-67
2023/09/05 12:36:40;;;;;;;2.67;1.52;;;;;;;;;;4977886;28;20095;-70
2023/09/05 12:39:26;;;;;;;1.85;1.58;;;;;;;;;;4995408;28;20092;-69
2023/09/05 12:42:11;;;;;;;2.83;1.45;;;;;;;;;;4987267;28;20472;-71
2023/09/05 12:44:56;;;;;;;2.30;1.42;;;;;;;;;;4977040;28;20422;-69
2023/09/05 12:47:43;;;;;;;5.90;2.45;;;;;;;;;;4982247;28;20026;-63
2023/09/05 12:50:35;;;;;;;8.20;1.75;;;;;;;;;;4991708;28;20523;-63
2023/09/05 12:53:20;;;;;;;2.25;1.60;;;;;;;;;;4996200;28;20029;-64
2023/09/05 12:56:08;;;;;;;2.55;1.77;;;;;;;;;;4988251;28;20114;-64
2023/09/05 12:58:53;;;;;;;2.88;1.60;;;;;;;;;;5002824;28;20384;-62
2023/09/05 13:01:39;;;;;;;2.88;1.52;;;;;;;;;;4998600;28;20191;-70
2023/09/05 13:04:24;;;;;;;1.50;1.40;;;;;;;;;;4983802;28;20464;-66
2023/09/05 13:07:10;;;;;;;3.47;1.70;;;;;;;;;;4981291;28;20036;-71
2023/09/05 13:09:56;;;;;;;2.55;1.92;;;;;;;;;;4999733;28;20068;-71
2023/09/05 13:12:41;;;;;;;1.35;1.20;;;;;;;;;;4998690;28;20507;-71
2023/09/05 13:15:27;;;;;;;3.58;1.98;;;;;;;;;;4981540;28;20041;-69
2023/09/05 13:18:13;;;;;;;2.60;1.45;;;;;;;;;;4992516;28;20065;-71
2023/09/05 13:20:59;;;;;;;2.92;1.85;;;;;;;;;;4989965;28;20076;-73
2023/09/05 13:23:44;;;;;;;3.58;1.67;;;;;;;;;;4983874;28;20034;-69
2023/09/05 13:26:29;;;;;;;4.85;1.98;;;;;;;;;;4998380;28;20025;-68
2023/09/05 13:29:15;;;;;;;3.65;1.58;;;;;;;;;;4984744;28;20034;-68
2023/09/05 13:32:01;;;;;;;3.88;1.75;;;;;;;;;;4999152;28;20109;-68
2023/09/05 13:34:46;;;;;;;3.05;1.38;;;;;;;;;;4983573;28;20041;-67
2023/09/05 13:37:31;;;;;;;2.17;1.45;;;;;;;;;;4994485;28;20573;-69
2023/09/05 13:40:17;;;;;;;4.72;1.80;;;;;;;;;;4994455;28;20503;-71
2023/09/05 13:43:02;;;;;;;2.22;1.58;;;;;;;;;;5020550;23;20057;-64
2023/09/05 13:45:47;;;;;;;3.17;1.90;;;;;;;;;;5021820;28;20026;-62
2023/09/05 13:48:34;;;;;;;2.80;1.50;;;;;;;;;;5021403;28;20484;-64
2023/09/05 13:51:22;;;;;;;2.28;1.40;;;;;;;;;;5021673;28;20048;-64
2023/09/05 13:54:07;;;;;;;2.20;1.85;;;;;;;;;;5021315;28;20392;-63
2023/09/05 13:56:52;;;;;;;3.53;1.85;;;;;;;;;;5021477;28;20113;-65
2023/09/05 13:59:37;;;;;;;2.13;1.42;;;;;;;;;;5021254;28;20048;-66
2023/09/05 14:02:23;;;;;;;2.75;1.98;;;;;;;;;;5021053;28;20029;-64
2023/09/05 14:05:10;;;;;;;4.55;1.80;;;;;;;;;;5036593;28;20361;-65
2023/09/05 14:07:55;;;;;;;2.75;1.60;;;;;;;;;;5035386;28;20448;-66
2023/09/05 14:10:41;;;;;;;2.92;1.80;;;;;;;;;;5036420;28;20044;-65
2023/09/05 14:13:27;;;;;;;3.08;1.90;;;;;;;;;;5035436;28;20052;-65
2023/09/05 14:16:12;;;;;;;2.38;1.40;;;;;;;;;;5022273;28;20036;-66
2023/09/05 14:18:58;;;;;;;2.85;1.80;;;;;;;;;;5036040;28;20041;-64
2023/09/05 14:21:44;;;;;;;2.17;1.60;;;;;;;;;;5036324;28;20032;-65
2023/09/05 14:24:29;;;;;;;3.10;1.70;;;;;;;;;;5036745;28;20377;-64
2023/09/05 14:27:15;;;;;;;3.38;1.60;;;;;;;;;;5034897;28;20034;-64
2023/09/05 14:30:00;;;;;;;3.65;2.10;;;;;;;;;;5035626;28;20383;-64
2023/09/05 14:32:46;;;;;;;2.58;1.80;;;;;;;;;;5034368;28;20456;-64
2023/09/05 14:35:31;;;;;;;3.65;1.60;;;;;;;;;;5034475;28;20025;-69
2023/09/05 14:38:17;;;;;;;3.53;1.88;;;;;;;;;;5021047;28;20104;-69
2023/09/05 14:41:02;;;;;;;2.45;1.90;;;;;;;;;;5035236;28;20079;-68
2023/09/05 14:43:48;;;;;;;1.75;1.40;;;;;;;;;;5020891;28;20488;-67
2023/09/05 14:46:34;;;;;;;3.33;1.50;;;;;;;;;;5033976;28;20095;-67
2023/09/05 14:49:19;;;;;;;4.28;1.58;;;;;;;;;;5035142;28;20065;-69
2023/09/05 14:52:05;;;;;;;3.65;1.63;;;;;;;;;;5033767;28;20396;-67
2023/09/05 14:54:50;;;;;;;2.35;1.80;;;;;;;;;;5035746;28;20422;-63
2023/09/05 14:57:36;;;;;;;4.05;1.77;;;;;;;;;;5034031;28;20029;-69
2023/09/05 15:00:22;;;;;;;1.90;1.50;;;;;;;;;;5035440;28;20076;-67
2023/09/05 15:03:08;;;;;;;2.63;1.85;;;;;;;;;;5033749;28;20376;-66
2023/09/05 15:05:54;;;;;;;2.28;1.52;;;;;;;;;;5035314;28;20088;-68
2023/09/05 15:08:40;;;;;;;4.47;1.70;;;;;;;;;;5035629;28;20111;-66
2023/09/05 15:11:25;;;;;;;3.13;1.50;;;;;;;;;;5033369;28;20123;-65
2023/09/05 15:14:11;;;;;;;2.33;1.65;;;;;;;;;;5033346;28;20060;-63
2023/09/05 15:16:57;;;;;;;3.35;1.95;;;;;;;;;;5035121;28;20052;-64
2023/09/05 15:19:42;;;;;;;1.98;1.58;;;;;;;;;;5035195;28;20029;-66
2023/09/05 15:22:28;;;;;;;2.45;1.50;;;;;;;;;;5033547;28;20036;-66
2023/09/05 15:25:15;;;;;;;3.17;1.70;;;;;;;;;;5019582;28;20033;-67
2023/09/05 15:28:01;;;;;;;6.78;2.03;;;;;;;;;;5019914;28;20035;-66
2023/09/05 15:30:46;;;;;;;1.75;1.35;;;;;;;;;;5034950;28;20026;-64
2023/09/05 15:33:33;;;;;;;4.15;1.70;;;;;;;;;;5033323;28;20494;-65
2023/09/05 15:36:18;;;;;;;3.85;1.73;;;;;;;;;;5034293;28;20079;-64
2023/09/05 15:39:04;;;;;;;3.38;1.70;;;;;;;;;;5033882;28;20030;-64
2023/09/05 15:41:51;;;;;;;3.60;2.10;;;;;;;;;;5034586;28;20040;-65
2023/09/05 15:44:37;;;;;;;3.40;2.17;;;;;;;;;;5034597;28;20387;-65
2023/09/05 15:47:23;;;;;;;2.40;1.80;;;;;;;;;;5034684;28;20033;-65
2023/09/05 15:50:08;;;;;;;6.97;2.17;;;;;;;;;;5034588;28;20112;-68
2023/09/05 15:52:54;;;;;;;2.97;2.00;;;;;;;;;;5032694;28;20025;-67
2023/09/05 15:55:41;;;;;;;2.38;1.70;;;;;;;;;;5032746;28;20032;-65
2023/09/05 15:58:26;;;;;;;2.97;2.05;;;;;;;;;;5034278;28;20044;-65
2023/09/05 16:01:13;;;;;;;4.72;2.75;;;;;;;;;;5033657;28;20076;-65
2023/09/05 16:03:58;;;;;;;2.53;1.88;;;;;;;;;;5032051;28;20116;-64
2023/09/05 16:06:44;;;;;;;3.50;1.70;;;;;;;;;;5033133;28;20370;-63
2023/09/05 16:09:30;;;;;;;3.92;2.30;;;;;;;;;;5032503;28;20057;-65
2023/09/05 16:12:15;;;;;;;6.15;2.85;;;;;;;;;;5033661;28;20104;-66
2023/09/05 16:15:01;;;;;;;4.28;2.42;;;;;;;;;;5033620;28;20487;-66
2023/09/05 16:17:47;;;;;;;2.65;1.90;;;;;;;;;;5032235;28;20140;-65
2023/09/05 16:20:32;;;;;;;2.30;1.90;;;;;;;;;;5032635;28;20475;-66
2023/09/05 16:23:18;;;;;;;5.05;2.33;;;;;;;;;;5032222;28;20037;-66
2023/09/05 16:26:03;;;;;;;4.20;2.25;;;;;;;;;;5033477;28;20026;-63
2023/09/05 16:28:49;;;;;;;4.60;2.15;;;;;;;;;;5032528;28;20030;-62
2023/09/05 16:31:34;;;;;;;4.07;2.25;;;;;;;;;;5032269;28;20029;-64
2023/09/05 16:34:20;;;;;;;4.88;2.50;;;;;;;;;;5018644;28;20041;-70
2023/09/05 16:37:06;;;;;;;6.82;3.90;;;;;;;;;;5033170;28;20404;-70
2023/09/05 16:39:51;;;;;;;5.45;2.70;;;;;;;;;;5032111;28;20036;-70
2023/09/05 16:42:37;;;;;;;7.43;3.50;;;;;;;;;;5031985;28;20034;-61
2023/09/05 16:45:22;;;;;;;6.70;2.90;;;;;;;;;;5031698;28;20381;-59
2023/09/05 16:48:08;;;;;;;4.95;2.20;;;;;;;;;;5032108;28;20036;-60